createdAt,value
2023-01-17T00:02:51.849Z,3.12
2023-01-17T00:08:13.721Z,3.11
2023-01-17T00:13:16.724Z,3.11
2023-01-17T00:18:19.663Z,3.10
2023-01-17T00:24:00.599Z,3.12
2023-01-17T00:29:03.902Z,3.16
2023-01-17T00:34:06.762Z,3.18
2023-01-17T00:39:09.628Z,3.22
2023-01-17T00:44:30.913Z,3.24
2023-01-17T00:49:52.290Z,3.26
2023-01-17T00:55:13.586Z,3.29
2023-01-17T01:00:38.064Z,3.30
2023-01-17T01:05:59.368Z,3.31
2023-01-17T01:11:25.093Z,3.33
2023-01-17T01:16:46.381Z,3.35
2023-01-17T01:22:08.172Z,3.36
2023-01-17T01:27:29.972Z,3.38
2023-01-17T01:32:52.427Z,3.38
2023-01-17T01:37:55.586Z,3.41
2023-01-17T01:43:00.421Z,3.41
2023-01-17T01:48:46.495Z,3.41
2023-01-17T01:53:59.853Z,3.42
2023-01-17T01:59:07.226Z,3.40
2023-01-17T02:04:11.077Z,3.39
2023-01-17T02:09:17.329Z,3.38
2023-01-17T02:14:22.554Z,3.39
2023-01-17T02:19:59.979Z,3.40
2023-01-17T02:25:27.347Z,3.39
2023-01-17T02:31:17.250Z,3.41
2023-01-17T02:36:33.256Z,3.41
2023-01-17T02:41:44.757Z,3.42
2023-01-17T02:46:55.305Z,3.44
2023-01-17T02:52:25.809Z,3.45
2023-01-17T02:58:00.894Z,3.44
2023-01-17T03:03:45.486Z,3.45
2023-01-17T03:08:51.331Z,3.47
2023-01-17T03:13:58.379Z,3.47
2023-01-17T03:19:01.537Z,3.51
2023-01-17T03:24:04.799Z,3.53
2023-01-17T03:29:07.602Z,3.52
2023-01-17T03:34:10.755Z,3.57
2023-01-17T03:39:13.646Z,3.56
2023-01-17T03:44:16.525Z,3.56
2023-01-17T03:49:19.264Z,3.59
2023-01-17T03:54:22.362Z,3.61
2023-01-17T03:59:25.398Z,3.63
2023-01-17T04:04:28.213Z,3.60
2023-01-17T04:09:34.648Z,3.61
2023-01-17T04:14:37.666Z,3.62
2023-01-17T04:19:41.348Z,3.64
2023-01-17T04:24:44.207Z,3.65
2023-01-17T04:29:47.063Z,3.69
2023-01-17T04:34:50.512Z,3.68
2023-01-17T04:39:53.443Z,3.70
2023-01-17T04:44:56.449Z,3.69
2023-01-17T04:49:59.672Z,3.70
2023-01-17T04:55:02.698Z,3.71
2023-01-17T05:00:06.472Z,3.74
2023-01-17T05:05:10.416Z,3.73
2023-01-17T05:10:13.407Z,3.73
2023-01-17T05:15:16.772Z,3.73
2023-01-17T05:20:21.383Z,3.74
2023-01-17T05:25:31.151Z,3.72
2023-01-17T05:30:35.206Z,3.72
2023-01-17T05:35:38.594Z,3.74
2023-01-17T05:40:41.614Z,3.74
2023-01-17T05:45:47.495Z,3.75
2023-01-17T05:50:52.207Z,3.74
2023-01-17T05:55:55.128Z,3.76
2023-01-17T06:00:58.191Z,3.79
2023-01-17T06:06:01.247Z,3.81
2023-01-17T06:11:04.363Z,3.81
2023-01-17T06:16:07.928Z,3.81
2023-01-17T06:21:10.729Z,3.78
2023-01-17T06:26:13.688Z,3.79
2023-01-17T06:31:16.606Z,3.75
2023-01-17T06:36:19.953Z,3.71
2023-01-17T06:41:23.507Z,3.67
2023-01-17T06:46:26.441Z,3.65
2023-01-17T06:51:29.328Z,3.59
2023-01-17T06:56:33.600Z,3.54
2023-01-17T07:01:36.867Z,3.48
2023-01-17T07:06:39.950Z,3.43
2023-01-17T07:11:42.736Z,3.39
2023-01-17T07:16:46.238Z,3.31
2023-01-17T07:21:55.481Z,3.23
2023-01-17T07:26:58.794Z,3.16
2023-01-17T07:32:03.314Z,3.07
2023-01-17T07:37:06.622Z,3.00
2023-01-17T07:42:09.784Z,2.87
2023-01-17T07:47:13.023Z,2.82
2023-01-17T07:52:18.180Z,2.74
2023-01-17T07:57:21.279Z,2.73
2023-01-17T08:02:24.351Z,2.74
2023-01-17T08:07:27.303Z,2.65
2023-01-17T08:12:30.227Z,2.48
2023-01-17T08:17:33.014Z,2.39
2023-01-17T08:22:35.904Z,2.37
2023-01-17T08:27:39.700Z,2.34
2023-01-17T08:32:42.724Z,2.31
2023-01-17T08:37:48.359Z,2.30
2023-01-17T08:43:01.003Z,2.40
2023-01-17T08:48:04.031Z,2.82
2023-01-17T08:53:07.054Z,3.52
2023-01-17T08:58:10.085Z,4.14
2023-01-17T09:03:14.190Z,4.66
2023-01-17T09:08:17.261Z,5.23
2023-01-17T09:13:20.116Z,5.24
2023-01-17T09:18:23.207Z,4.91
2023-01-17T09:23:29.572Z,5.01
2023-01-17T09:28:39.773Z,5.57
2023-01-17T09:33:43.067Z,6.20
2023-01-17T09:38:46.689Z,6.92
2023-01-17T09:44:08.110Z,7.53
2023-01-17T09:49:46.919Z,8.10
2023-01-17T09:54:51.139Z,8.30
2023-01-17T10:00:20.709Z,8.37
2023-01-17T10:06:08.096Z,7.96
2023-01-17T10:11:50.418Z,7.35
2023-01-17T10:17:16.358Z,6.76
2023-01-17T10:22:51.326Z,6.27
2023-01-17T10:27:59.140Z,5.81
2023-01-17T10:33:13.815Z,5.58
2023-01-17T10:38:18.963Z,5.37
2023-01-17T10:43:59.741Z,5.19
2023-01-17T10:49:03.813Z,5.08
2023-01-17T10:54:42.881Z,5.14
2023-01-17T10:59:45.809Z,5.73
2023-01-17T11:04:54.601Z,6.39
2023-01-17T11:09:58.977Z,6.81
2023-01-17T11:15:19.873Z,7.16
2023-01-17T11:20:30.472Z,7.58
2023-01-17T11:25:34.664Z,7.58
2023-01-17T11:30:37.553Z,7.25
2023-01-17T11:35:46.797Z,6.97
2023-01-17T11:40:50.976Z,6.65
2023-01-17T11:46:15.790Z,6.39
2023-01-17T11:51:35.229Z,6.19
2023-01-17T11:56:38.499Z,6.05
2023-01-17T12:01:49.942Z,5.97
2023-01-17T12:07:15.361Z,5.86
2023-01-17T12:13:10.215Z,5.83
2023-01-17T12:18:45.921Z,5.80
2023-01-17T12:24:25.516Z,5.71
2023-01-17T12:29:54.756Z,5.72
2023-01-17T12:35:08.834Z,5.76
2023-01-17T12:40:32.952Z,5.81
2023-01-17T12:45:43.753Z,5.82
2023-01-17T12:51:00.666Z,5.88
2023-01-17T12:56:17.871Z,5.93
2023-01-17T13:01:23.328Z,5.96
2023-01-17T13:07:10.335Z,5.98
2023-01-17T13:12:18.771Z,5.97
2023-01-17T13:17:27.564Z,5.94
2023-01-17T13:22:32.891Z,5.92
2023-01-17T13:28:12.840Z,5.87
2023-01-17T13:33:47.481Z,5.81
2023-01-17T13:39:11.507Z,5.76
2023-01-17T13:44:21.725Z,5.66
2023-01-17T13:49:34.097Z,5.60
2023-01-17T13:55:00.696Z,5.53
2023-01-17T14:00:21.531Z,5.47
2023-01-17T14:05:30.755Z,5.39
2023-01-17T14:10:54.194Z,5.30
2023-01-17T14:15:57.576Z,5.23
2023-01-17T14:21:26.321Z,5.18
2023-01-17T14:26:44.015Z,5.12
2023-01-17T14:31:49.386Z,5.06
2023-01-17T14:37:06.881Z,4.98
2023-01-17T14:42:22.572Z,4.92
2023-01-17T14:47:30.236Z,4.88
2023-01-17T14:52:33.169Z,4.82
2023-01-17T14:57:36.067Z,4.77
2023-01-17T15:02:44.040Z,4.73
2023-01-17T15:07:54.246Z,4.69
2023-01-17T15:13:05.702Z,4.66
2023-01-17T15:18:19.805Z,4.62
2023-01-17T15:23:25.132Z,4.60
2023-01-17T15:28:29.087Z,4.56
2023-01-17T15:33:34.029Z,4.56
2023-01-17T15:38:40.450Z,4.53
2023-01-17T15:43:45.307Z,4.54
2023-01-17T15:48:48.372Z,4.52
2023-01-17T15:53:51.295Z,4.47
2023-01-17T15:58:54.278Z,4.45
2023-01-17T16:03:58.638Z,4.42
2023-01-17T16:09:01.300Z,4.42
2023-01-17T16:14:07.588Z,4.39
2023-01-17T16:19:10.433Z,4.35
2023-01-17T16:24:13.407Z,4.35
2023-01-17T16:29:16.373Z,4.33
2023-01-17T16:34:19.576Z,4.30
2023-01-17T16:39:22.664Z,4.33
2023-01-17T16:44:26.197Z,4.32
2023-01-17T16:49:32.772Z,4.30
2023-01-17T16:54:35.740Z,4.29
2023-01-17T16:59:50.220Z,4.25
2023-01-17T17:04:53.763Z,4.20
2023-01-17T17:09:56.747Z,4.13
2023-01-17T17:14:59.510Z,4.07
2023-01-17T17:20:02.457Z,4.00
2023-01-17T17:25:06.771Z,3.96
2023-01-17T17:30:11.125Z,3.90
2023-01-17T17:35:14.183Z,3.85
2023-01-17T17:40:17.294Z,3.82
2023-01-17T17:45:22.375Z,3.77
2023-01-17T17:50:25.090Z,3.73
2023-01-17T17:55:29.364Z,3.70
2023-01-17T18:00:32.094Z,3.65
2023-01-17T18:05:35.107Z,3.61
2023-01-17T18:10:39.614Z,3.62
2023-01-17T18:15:42.517Z,3.59
2023-01-17T18:20:45.371Z,3.56
2023-01-17T18:25:48.391Z,3.55
2023-01-17T18:30:51.324Z,3.54
2023-01-17T18:36:00.121Z,3.49
2023-01-17T18:41:13.743Z,3.48
2023-01-17T18:46:19.494Z,3.47
2023-01-17T18:51:22.874Z,3.45
2023-01-17T18:56:26.471Z,3.42
2023-01-17T19:01:35.078Z,3.40
2023-01-17T19:06:41.906Z,3.40
2023-01-17T19:11:47.525Z,3.36
2023-01-17T19:16:53.156Z,3.36
2023-01-17T19:22:01.600Z,3.30
2023-01-17T19:27:11.422Z,3.17
2023-01-17T19:32:14.449Z,3.17
2023-01-17T19:37:17.200Z,3.10
2023-01-17T19:42:22.969Z,3.03
2023-01-17T19:47:25.856Z,3.02
2023-01-17T19:52:31.143Z,2.94
2023-01-17T19:57:34.980Z,2.82
2023-01-17T20:02:38.444Z,2.78
2023-01-17T20:07:41.892Z,2.69
2023-01-17T20:12:45.233Z,2.63
2023-01-17T20:17:48.060Z,2.57
2023-01-17T20:22:50.939Z,2.47
2023-01-17T20:27:54.943Z,2.42
2023-01-17T20:32:58.178Z,2.29
2023-01-17T20:38:01.169Z,2.13
2023-01-17T20:43:04.119Z,2.00
2023-01-17T20:48:07.625Z,1.93
2023-01-17T20:53:10.793Z,1.90
2023-01-17T20:58:13.870Z,1.85
2023-01-17T21:03:16.829Z,1.77
2023-01-17T21:08:19.701Z,1.74
2023-01-17T21:13:23.805Z,1.70
2023-01-17T21:18:31.747Z,1.72
2023-01-17T21:23:36.295Z,1.76
2023-01-17T21:28:43.224Z,1.77
2023-01-17T21:33:47.613Z,1.82
2023-01-17T21:38:57.244Z,1.83
2023-01-17T21:44:04.187Z,1.83
2023-01-17T21:49:11.835Z,1.82
2023-01-17T21:54:14.967Z,1.79
2023-01-17T21:59:17.824Z,1.78
2023-01-17T22:04:20.748Z,1.80
2023-01-17T22:09:23.991Z,1.77
2023-01-17T22:14:26.713Z,1.86
2023-01-17T22:19:30.136Z,1.88
2023-01-17T22:24:34.391Z,1.95
2023-01-17T22:29:37.991Z,2.00
2023-01-17T22:34:41.196Z,2.08
2023-01-17T22:39:44.842Z,2.14
2023-01-17T22:44:47.929Z,2.17
2023-01-17T22:49:51.445Z,2.19
2023-01-17T22:54:54.558Z,2.22
2023-01-17T22:59:57.299Z,2.22
2023-01-17T23:05:00.131Z,2.25
2023-01-17T23:10:03.154Z,2.30
2023-01-17T23:15:25.517Z,2.35
2023-01-17T23:20:28.213Z,2.39
2023-01-17T23:25:31.233Z,2.43
2023-01-17T23:30:36.536Z,2.49
2023-01-17T23:35:43.313Z,2.54
2023-01-17T23:41:04.840Z,2.58
2023-01-17T23:46:12.633Z,2.65
2023-01-17T23:51:15.695Z,2.70
2023-01-17T23:56:23.233Z,2.74
